METAR Data
IDs: Format: Raw Decoded Include TAF

Data at: 1257 UTC 26 Feb 2021

KAWO 261256Z AUTO 28011G20KT 10SM -RA SCT018 BKN032 OVC042 04/03 A2985 RMK AO2 SLP114 P0004 T00440028